createdAt,value
2023-05-01T00:04:05.019Z,61752.44
2023-05-01T00:09:08.072Z,61743.25
2023-05-01T00:14:10.678Z,61723.22
2023-05-01T00:19:18.317Z,61706.63
2023-05-01T00:24:20.940Z,61732.50
2023-05-01T00:29:23.514Z,61753.16
2023-05-01T00:34:27.426Z,61757.22
2023-05-01T00:39:30.022Z,61701.56
2023-05-01T00:44:32.591Z,61694.53
2023-05-01T00:49:36.915Z,61714.56
2023-05-01T00:54:40.552Z,61665.69
2023-05-01T00:59:43.467Z,61734.91
2023-05-01T01:04:49.099Z,61675.22
2023-05-01T01:10:04.428Z,61670.47
2023-05-01T01:15:14.922Z,61673.88
2023-05-01T01:20:29.225Z,61649.03
2023-05-01T01:26:11.836Z,61707.25
2023-05-01T01:31:19.347Z,61697.84
2023-05-01T01:36:34.314Z,61692.84
2023-05-01T01:41:39.558Z,61687.66
2023-05-01T01:46:43.722Z,61709.78
2023-05-01T01:51:48.562Z,61675.94
2023-05-01T01:56:52.301Z,61696.13
2023-05-01T02:01:57.619Z,61662.91
2023-05-01T02:07:02.801Z,61708.00
2023-05-01T02:12:07.708Z,61698.00
2023-05-01T02:17:11.100Z,61686.59
2023-05-01T02:22:17.161Z,61658.47
2023-05-01T02:27:24.171Z,61678.13
2023-05-01T02:32:28.513Z,61682.28
2023-05-01T02:37:33.009Z,61680.22
2023-05-01T02:42:36.342Z,61656.44
2023-05-01T02:47:43.228Z,61670.53
2023-05-01T02:52:48.065Z,61699.06
2023-05-01T02:57:51.889Z,61660.28
2023-05-01T03:02:54.801Z,61672.81
2023-05-01T03:07:58.815Z,61684.84
2023-05-01T03:13:01.636Z,61709.78
2023-05-01T03:18:04.680Z,61713.50
2023-05-01T03:23:09.177Z,61691.31
2023-05-01T03:28:11.788Z,61683.53
2023-05-01T03:33:14.547Z,61678.28
2023-05-01T03:38:18.519Z,61713.91
2023-05-01T03:43:21.103Z,61702.97
2023-05-01T03:48:24.739Z,61691.53
2023-05-01T03:53:28.529Z,61693.66
2023-05-01T03:58:32.201Z,61691.06
2023-05-01T04:03:34.805Z,61710.84
2023-05-01T04:08:38.928Z,61721.22
2023-05-01T04:13:41.550Z,61675.06
2023-05-01T04:18:44.157Z,61703.56
2023-05-01T04:23:48.163Z,61721.34
2023-05-01T04:28:50.954Z,61700.25
2023-05-01T04:33:53.812Z,61743.50
2023-05-01T04:38:57.722Z,61741.06
2023-05-01T04:44:00.323Z,61730.44
2023-05-01T04:49:03.863Z,61757.63
2023-05-01T04:54:07.674Z,61775.63
2023-05-01T04:59:10.272Z,61783.09
2023-05-01T05:04:12.874Z,61785.91
2023-05-01T05:09:18.759Z,61801.69
2023-05-01T05:14:23.704Z,61799.25
2023-05-01T05:19:26.249Z,61783.25
2023-05-01T05:24:30.235Z,61818.13
2023-05-01T05:29:32.875Z,61805.75
2023-05-01T05:34:35.398Z,61820.59
2023-05-01T05:39:39.379Z,61833.19
2023-05-01T05:44:42.015Z,61886.53
2023-05-01T05:49:44.652Z,61911.41
2023-05-01T05:54:48.966Z,61940.28
2023-05-01T05:59:51.715Z,61968.13
2023-05-01T06:04:54.308Z,61992.38
2023-05-01T06:10:01.721Z,62087.81
2023-05-01T06:15:04.849Z,62137.34
2023-05-01T06:20:08.822Z,62284.84
2023-05-01T06:25:12.935Z,62339.25
2023-05-01T06:30:15.484Z,62363.84
2023-05-01T06:35:18.245Z,62256.47
2023-05-01T06:40:22.152Z,62202.00
2023-05-01T06:45:24.896Z,62205.94
2023-05-01T06:50:28.864Z,62161.41
2023-05-01T06:55:35.181Z,62242.13
2023-05-01T07:00:38.511Z,62226.84
2023-05-01T07:05:41.296Z,62249.97
2023-05-01T07:10:45.194Z,62258.78
2023-05-01T07:15:49.089Z,62322.94
2023-05-01T07:20:52.916Z,62385.00
2023-05-01T07:25:56.976Z,62578.16
2023-05-01T07:31:01.518Z,62679.78
2023-05-01T07:36:04.613Z,62734.88
2023-05-01T07:41:08.518Z,62764.97
2023-05-01T07:46:11.805Z,62745.44
2023-05-01T07:51:14.674Z,62924.91
2023-05-01T07:56:18.556Z,62951.31
2023-05-01T08:01:21.264Z,62975.69
2023-05-01T08:06:23.782Z,62906.34
2023-05-01T08:11:29.407Z,62909.56
2023-05-01T08:16:32.106Z,63063.81
2023-05-01T08:21:34.720Z,63148.84
2023-05-01T08:26:38.590Z,63206.72
2023-05-01T08:31:43.229Z,63272.19
2023-05-01T08:36:45.853Z,63186.88
2023-05-01T08:41:50.129Z,63163.81
2023-05-01T08:47:03.823Z,63081.47
2023-05-01T08:52:07.539Z,63076.44
2023-05-01T08:57:12.984Z,63091.84
2023-05-01T09:02:17.032Z,63071.25
2023-05-01T09:07:19.702Z,62909.00
2023-05-01T09:12:25.919Z,62882.22
2023-05-01T09:17:29.104Z,62821.56
2023-05-01T09:22:32.921Z,62806.19
2023-05-01T09:27:38.399Z,62814.72
2023-05-01T09:32:42.575Z,62902.38
2023-05-01T09:37:51.093Z,62879.81
2023-05-01T09:42:56.267Z,62952.09
2023-05-01T09:48:11.612Z,63044.50
2023-05-01T09:53:14.888Z,63105.75
2023-05-01T09:58:29.032Z,63186.66
2023-05-01T10:03:33.024Z,63402.31
2023-05-01T10:08:46.263Z,63439.22
2023-05-01T10:14:06.506Z,63525.16
2023-05-01T10:19:09.356Z,63490.63
2023-05-01T10:24:12.225Z,63482.13
2023-05-01T10:29:16.411Z,63444.31
2023-05-01T10:34:23.097Z,63623.00
2023-05-01T10:39:33.552Z,63717.41
2023-05-01T11:07:17.945Z,63796.75
2023-05-01T11:12:52.347Z,63737.09
2023-05-01T11:17:55.986Z,63731.63
2023-05-01T11:23:00.293Z,63745.97
2023-05-01T11:28:06.574Z,63720.72
2023-05-01T11:33:11.188Z,63573.13
2023-05-01T11:38:19.768Z,63541.31
2023-05-01T11:43:23.148Z,63473.06
2023-05-01T11:48:25.763Z,63476.50
2023-05-01T11:53:30.370Z,63453.78
2023-05-01T11:58:37.766Z,63422.22
2023-05-01T12:03:43.903Z,63455.13
2023-05-01T12:08:51.081Z,63451.22
2023-05-01T12:13:54.521Z,63460.63
2023-05-01T12:18:57.485Z,63430.19
2023-05-01T12:24:10.612Z,63512.63
2023-05-01T12:29:13.621Z,63515.63
2023-05-01T12:34:16.365Z,63573.28
2023-05-01T12:39:22.112Z,63619.94
2023-05-01T12:44:26.509Z,63452.06
2023-05-01T12:49:30.906Z,63395.84
2023-05-01T12:54:37.531Z,63381.78
2023-05-01T12:59:41.674Z,63386.03
2023-05-01T13:04:45.161Z,63541.16
2023-05-01T13:09:57.702Z,63534.19
2023-05-01T13:15:00.926Z,63519.88
2023-05-01T13:20:05.391Z,63566.66
2023-05-01T13:25:17.424Z,63425.13
2023-05-01T13:30:22.734Z,63275.91
2023-05-01T13:35:26.879Z,63163.25
2023-05-01T13:40:30.926Z,63267.22
2023-05-01T13:45:33.548Z,63427.22
2023-05-01T13:50:36.522Z,63343.81
2023-05-01T13:55:42.519Z,63403.34
2023-05-01T14:00:45.872Z,63446.03
2023-05-01T14:05:49.608Z,63502.50
2023-05-01T14:10:54.044Z,63489.41
2023-05-01T14:15:56.629Z,63486.41
2023-05-01T14:21:00.350Z,63326.66
2023-05-01T14:26:05.268Z,63250.06
2023-05-01T14:31:08.896Z,63171.47
2023-05-01T14:36:13.526Z,63350.59
2023-05-01T14:41:19.456Z,63342.59
2023-05-01T14:46:31.531Z,63374.06
2023-05-01T14:51:34.367Z,63316.63
2023-05-01T14:56:38.651Z,63180.88
2023-05-01T15:01:41.425Z,63074.22
2023-05-01T15:06:44.232Z,63060.25
2023-05-01T15:11:48.171Z,63009.28
2023-05-01T15:16:50.827Z,62941.00
2023-05-01T15:21:53.355Z,62900.88
2023-05-01T15:26:58.277Z,62869.41
2023-05-01T15:32:10.809Z,62845.31
2023-05-01T15:37:14.323Z,62826.69
2023-05-01T15:42:18.270Z,62767.78
2023-05-01T15:47:20.859Z,62751.72
2023-05-01T15:52:24.464Z,62742.53
2023-05-01T15:57:28.496Z,62755.38
2023-05-01T16:02:33.306Z,62712.22
2023-05-01T16:07:36.153Z,62729.72
2023-05-01T16:12:40.218Z,62668.28
2023-05-01T16:17:44.594Z,62682.47
2023-05-01T16:22:47.175Z,62691.94
2023-05-01T16:27:51.112Z,62650.38
2023-05-01T16:32:53.756Z,62632.84
2023-05-01T16:37:56.893Z,62644.44
2023-05-01T16:43:02.536Z,62648.44
2023-05-01T16:48:06.127Z,62678.97
2023-05-01T16:53:08.948Z,62658.84
2023-05-01T16:58:12.895Z,62696.66
2023-05-01T17:03:16.131Z,62712.00
2023-05-01T17:08:18.890Z,62708.19
2023-05-01T17:13:22.848Z,62852.03
2023-05-01T17:18:25.453Z,62867.34
2023-05-01T17:23:28.862Z,62874.31
2023-05-01T17:28:32.810Z,62860.19
2023-05-01T17:33:35.465Z,62826.50
2023-05-01T17:38:38.103Z,62731.31
2023-05-01T17:43:44.690Z,62666.47
2023-05-01T17:48:47.320Z,62549.38
2023-05-01T17:53:49.938Z,62513.78
2023-05-01T17:58:54.307Z,62507.25
2023-05-01T18:03:57.062Z,62471.34
2023-05-01T18:08:59.811Z,62414.16
2023-05-01T18:14:04.474Z,62372.78
2023-05-01T18:19:07.024Z,62360.44
2023-05-01T18:24:09.582Z,62339.78
2023-05-01T18:29:13.699Z,62357.38
2023-05-01T18:34:16.297Z,62328.28
2023-05-01T18:39:21.593Z,62305.50
2023-05-01T18:44:26.738Z,62310.53
2023-05-01T18:49:30.350Z,62283.09
2023-05-01T18:54:32.931Z,62266.81
2023-05-01T18:59:36.826Z,62282.41
2023-05-01T19:04:55.462Z,62277.09
2023-05-01T19:10:00.059Z,62284.31
2023-05-01T19:15:04.536Z,62269.59
2023-05-01T19:20:08.674Z,62282.59
2023-05-01T19:25:12.250Z,62227.00
2023-05-01T19:30:16.477Z,62250.84
2023-05-01T19:35:19.074Z,62220.53
2023-05-01T19:40:21.674Z,62238.19
2023-05-01T19:45:25.713Z,62229.22
2023-05-01T19:50:28.365Z,62234.78
2023-05-01T19:55:30.946Z,62190.75
2023-05-01T20:00:34.853Z,62201.03
2023-05-01T20:05:37.503Z,62203.47
2023-05-01T20:10:40.027Z,62179.56
2023-05-01T20:15:44.281Z,62159.16
2023-05-01T20:20:46.809Z,62140.28
2023-05-01T20:25:51.693Z,62067.94
2023-05-01T20:30:55.895Z,62080.56
2023-05-01T20:35:59.321Z,62075.00
2023-05-01T20:41:02.324Z,62052.28
2023-05-01T20:46:06.405Z,62019.75
2023-05-01T20:51:09.118Z,62024.31
2023-05-01T20:56:11.686Z,61998.00
2023-05-01T21:01:15.659Z,62049.41
2023-05-01T21:06:18.343Z,62006.69
2023-05-01T21:11:20.915Z,61977.22
2023-05-01T21:16:27.593Z,61987.22
2023-05-01T21:21:30.910Z,61961.34
2023-05-01T21:26:33.490Z,61949.09
2023-05-01T21:31:37.462Z,61979.59
2023-05-01T21:36:44.818Z,61940.81
2023-05-01T21:41:48.563Z,61913.59
2023-05-01T21:46:56.483Z,61947.34
2023-05-01T21:52:00.316Z,61915.44
2023-05-01T21:57:05.398Z,61919.59
2023-05-01T22:02:11.316Z,61909.47
2023-05-01T22:07:13.872Z,61910.44
2023-05-01T22:12:16.448Z,61885.41
2023-05-01T22:17:24.419Z,61901.03
2023-05-01T22:22:27.096Z,61897.72
2023-05-01T22:27:29.673Z,61930.41
2023-05-01T22:32:33.777Z,61939.75
2023-05-01T22:37:36.386Z,62008.44
2023-05-01T22:42:39.010Z,61941.19
2023-05-01T22:47:42.987Z,61929.00
2023-05-01T22:52:46.595Z,61902.78
2023-05-01T22:57:49.281Z,61889.19
2023-05-01T23:02:53.244Z,61883.97
2023-05-01T23:07:55.843Z,61866.97
2023-05-01T23:12:59.382Z,61839.94
2023-05-01T23:18:03.308Z,61841.31
2023-05-01T23:23:12.102Z,61842.66
2023-05-01T23:28:21.064Z,61870.59
2023-05-01T23:33:25.250Z,61832.09
2023-05-01T23:38:28.302Z,61876.34
2023-05-01T23:43:30.951Z,61904.38
2023-05-01T23:48:35.401Z,61901.25
2023-05-01T23:53:37.925Z,61923.09
2023-05-01T23:58:40.546Z,61945.78
